Time;durP1;ratioP1;P1;durP2;ratioP2;P2;SDS_P1;SDS_P2;PMS_P1;PMS_P2;Temp;Humidity;BMP_temperature;BMP_pressure;BME280_temperature;BME280_humidity;BME280_pressure;Samples;Min_cycle;Max_cycle;Signal;HPM_P1;HPM_P2
2021/12/20 00:00:49;;;;;;;12.07;1.80;;;;;;;;;;5010385;28;20208;-61
2021/12/20 00:03:14;;;;;;;11.75;1.85;;;;;;;;;;5011518;28;20216;-61
2021/12/20 00:05:40;;;;;;;13.50;1.83;;;;;;;;;;5009807;28;20212;-60
2021/12/20 00:08:05;;;;;;;13.48;1.90;;;;;;;;;;5010135;28;20254;-62
2021/12/20 00:10:31;;;;;;;12.15;1.73;;;;;;;;;;5010206;28;20882;-61
2021/12/20 00:12:56;;;;;;;16.02;1.77;;;;;;;;;;5009447;28;20232;-61
2021/12/20 00:15:21;;;;;;;15.20;1.83;;;;;;;;;;5011109;28;20721;-60
2021/12/20 00:17:47;;;;;;;11.07;1.85;;;;;;;;;;5011506;28;20485;-60
2021/12/20 00:20:12;;;;;;;12.75;2.35;;;;;;;;;;5010220;28;20216;-60
2021/12/20 00:22:38;;;;;;;15.05;2.30;;;;;;;;;;5011189;28;20234;-60
2021/12/20 00:25:03;;;;;;;13.85;2.13;;;;;;;;;;5010961;28;20212;-60
2021/12/20 00:27:28;;;;;;;15.73;2.35;;;;;;;;;;5010792;28;20204;-60
2021/12/20 00:29:54;;;;;;;13.00;1.92;;;;;;;;;;5011289;28;20208;-60
2021/12/20 00:32:19;;;;;;;14.77;1.95;;;;;;;;;;5010856;28;20339;-60
2021/12/20 00:34:45;;;;;;;11.77;2.00;;;;;;;;;;5010609;28;20699;-60
2021/12/20 00:42:38;;;;;;;13.82;2.00;;;;;;;;;;5010779;28;20227;-60
2021/12/20 00:45:04;;;;;;;20.50;2.85;;;;;;;;;;5010498;28;20224;-60
2021/12/20 00:47:29;;;;;;;15.90;2.38;;;;;;;;;;5008761;28;20235;-60
2021/12/20 00:49:54;;;;;;;18.48;2.28;;;;;;;;;;5009968;28;20228;-60
2021/12/20 00:52:20;;;;;;;19.20;2.72;;;;;;;;;;5010336;28;21373;-60
2021/12/20 00:54:45;;;;;;;15.23;2.10;;;;;;;;;;5010345;28;20263;-60
2021/12/20 00:57:10;;;;;;;17.10;2.88;;;;;;;;;;5010341;28;20204;-60
2021/12/20 00:59:36;;;;;;;11.38;1.80;;;;;;;;;;5010698;28;20243;-60
2021/12/20 01:02:01;;;;;;;14.82;2.17;;;;;;;;;;5008087;28;20216;-61
2021/12/20 01:04:26;;;;;;;14.30;2.28;;;;;;;;;;5010692;28;20212;-60
2021/12/20 01:06:51;;;;;;;19.02;3.20;;;;;;;;;;5010781;28;20219;-60
2021/12/20 01:09:17;;;;;;;13.85;2.28;;;;;;;;;;5009653;28;20216;-60
2021/12/20 01:11:43;;;;;;;16.85;2.10;;;;;;;;;;5010436;28;20208;-60
2021/12/20 01:14:11;;;;;;;12.32;2.60;;;;;;;;;;5010135;28;20224;-60
2021/12/20 01:16:36;;;;;;;17.23;2.30;;;;;;;;;;5009928;28;20669;-60
2021/12/20 01:19:01;;;;;;;18.55;2.45;;;;;;;;;;5010222;28;20294;-60
2021/12/20 01:21:26;;;;;;;15.98;2.50;;;;;;;;;;5010700;28;20212;-60
2021/12/20 01:23:52;;;;;;;16.02;2.30;;;;;;;;;;5009922;28;20296;-60
2021/12/20 01:26:17;;;;;;;17.27;2.38;;;;;;;;;;5010228;28;20230;-60
2021/12/20 01:28:43;;;;;;;17.88;1.95;;;;;;;;;;5010499;28;20220;-60
2021/12/20 01:31:09;;;;;;;19.95;2.90;;;;;;;;;;5009104;28;20299;-61
2021/12/20 01:33:34;;;;;;;17.23;2.50;;;;;;;;;;5009371;28;20645;-60
2021/12/20 01:35:59;;;;;;;19.63;2.60;;;;;;;;;;5009743;28;20286;-60
2021/12/20 01:38:24;;;;;;;21.75;2.60;;;;;;;;;;5009905;28;20231;-60
2021/12/20 01:40:50;;;;;;;16.85;2.50;;;;;;;;;;5010681;28;20215;-60
2021/12/20 01:43:17;;;;;;;18.60;2.80;;;;;;;;;;5007692;28;20208;-60
2021/12/20 01:45:43;;;;;;;18.90;2.75;;;;;;;;;;5010254;28;20225;-60
2021/12/20 01:48:12;;;;;;;19.17;2.40;;;;;;;;;;5009692;28;20695;-60
2021/12/20 01:50:49;;;;;;;16.90;3.05;;;;;;;;;;5009891;28;20290;-60
2021/12/20 01:53:15;;;;;;;20.45;3.00;;;;;;;;;;5009727;28;20220;-60
2021/12/20 01:55:40;;;;;;;18.08;2.70;;;;;;;;;;5009121;28;20617;-60
2021/12/20 01:58:05;;;;;;;25.23;3.72;;;;;;;;;;5008959;28;20216;-60
2021/12/20 02:00:31;;;;;;;23.83;3.10;;;;;;;;;;5010053;28;20270;-60
2021/12/20 02:03:03;;;;;;;22.80;3.22;;;;;;;;;;5010252;28;20212;-60
2021/12/20 02:05:48;;;;;;;20.40;3.03;;;;;;;;;;5009318;28;20216;-60
2021/12/20 02:08:18;;;;;;;19.88;3.30;;;;;;;;;;5008930;28;20228;-60
2021/12/20 02:10:43;;;;;;;19.40;2.88;;;;;;;;;;5008999;28;20205;-60
2021/12/20 02:13:09;;;;;;;18.67;2.85;;;;;;;;;;5008669;28;20267;-60
2021/12/20 02:15:34;;;;;;;18.75;2.38;;;;;;;;;;5012246;28;20223;-60
2021/12/20 02:17:59;;;;;;;16.80;2.50;;;;;;;;;;5013794;28;20695;-60
2021/12/20 02:20:25;;;;;;;22.48;3.13;;;;;;;;;;5012692;28;20243;-60
2021/12/20 02:22:53;;;;;;;17.73;2.78;;;;;;;;;;5013815;28;20208;-60
2021/12/20 02:25:18;;;;;;;18.13;2.88;;;;;;;;;;5011274;28;20224;-60
2021/12/20 02:27:44;;;;;;;18.40;2.92;;;;;;;;;;5012388;28;20220;-60
2021/12/20 02:30:24;;;;;;;18.08;2.47;;;;;;;;;;5011964;28;20244;-60
2021/12/20 02:38:26;;;;;;;20.27;2.83;;;;;;;;;;5013098;28;20227;-60
2021/12/20 02:40:56;;;;;;;17.85;2.60;;;;;;;;;;4995310;28;20248;-60
2021/12/20 02:43:21;;;;;;;17.08;2.85;;;;;;;;;;5012849;28;20219;-60
2021/12/20 02:45:47;;;;;;;23.95;3.00;;;;;;;;;;5013172;28;20228;-60
2021/12/20 02:48:13;;;;;;;22.90;3.28;;;;;;;;;;5010994;28;20213;-60
2021/12/20 02:50:38;;;;;;;19.27;2.90;;;;;;;;;;5013172;28;20225;-60
2021/12/20 02:53:03;;;;;;;21.67;3.00;;;;;;;;;;5013022;28;20727;-60
2021/12/20 02:55:28;;;;;;;24.90;4.35;;;;;;;;;;5012497;28;20211;-60
2021/12/20 02:57:54;;;;;;;18.02;2.92;;;;;;;;;;5013296;28;20581;-60
2021/12/20 03:00:19;;;;;;;16.40;2.75;;;;;;;;;;5012596;28;20251;-60
2021/12/20 03:02:44;;;;;;;17.52;3.20;;;;;;;;;;5012290;28;20525;-60
2021/12/20 03:05:10;;;;;;;15.18;2.28;;;;;;;;;;5012498;28;20299;-60
2021/12/20 03:07:48;;;;;;;20.80;3.08;;;;;;;;;;5012511;28;20220;-60
2021/12/20 03:10:14;;;;;;;18.50;3.35;;;;;;;;;;5012468;28;20208;-60
2021/12/20 03:12:39;;;;;;;20.58;2.92;;;;;;;;;;5013101;28;20234;-60
2021/12/20 03:15:11;;;;;;;22.85;2.97;;;;;;;;;;5011432;28;20212;-60
2021/12/20 03:17:36;;;;;;;17.02;2.70;;;;;;;;;;5012529;28;20217;-60
2021/12/20 03:20:02;;;;;;;26.25;3.72;;;;;;;;;;5012179;28;20208;-60
2021/12/20 03:22:27;;;;;;;17.10;3.00;;;;;;;;;;5010808;28;20274;-60
2021/12/20 03:24:53;;;;;;;21.52;2.85;;;;;;;;;;5012753;28;20517;-60
2021/12/20 03:27:18;;;;;;;18.88;2.80;;;;;;;;;;5012262;28;20278;-60
2021/12/20 03:29:43;;;;;;;21.08;3.30;;;;;;;;;;5011750;28;20592;-60
2021/12/20 03:32:08;;;;;;;21.05;3.03;;;;;;;;;;5012070;28;20255;-60
2021/12/20 03:34:34;;;;;;;20.00;2.70;;;;;;;;;;5012740;28;20270;-60
2021/12/20 03:36:59;;;;;;;21.42;3.17;;;;;;;;;;5011888;28;20216;-60
2021/12/20 03:39:24;;;;;;;19.05;2.97;;;;;;;;;;5011945;28;20569;-60
2021/12/20 03:41:50;;;;;;;20.63;2.97;;;;;;;;;;5012511;28;20275;-60
2021/12/20 03:44:16;;;;;;;20.98;3.25;;;;;;;;;;5011299;28;20624;-60
2021/12/20 03:46:41;;;;;;;23.98;3.13;;;;;;;;;;5011757;28;20662;-60
2021/12/20 03:49:07;;;;;;;23.77;3.13;;;;;;;;;;5011573;28;20243;-61
2021/12/20 03:51:32;;;;;;;15.80;2.85;;;;;;;;;;5010079;28;20292;-60
2021/12/20 03:53:57;;;;;;;20.13;2.92;;;;;;;;;;5012099;28;20248;-60
2021/12/20 03:56:23;;;;;;;16.92;2.63;;;;;;;;;;5011624;28;20278;-60
2021/12/20 03:58:48;;;;;;;22.83;3.47;;;;;;;;;;5011452;28;20224;-60
2021/12/20 04:01:13;;;;;;;23.95;3.42;;;;;;;;;;5011462;28;20232;-60
2021/12/20 04:03:39;;;;;;;23.55;2.97;;;;;;;;;;5011743;28;20577;-60
2021/12/20 04:06:12;;;;;;;16.30;2.80;;;;;;;;;;5011067;28;20291;-60
2021/12/20 04:08:37;;;;;;;20.35;2.80;;;;;;;;;;5012052;28;20335;-60
2021/12/20 04:11:03;;;;;;;22.13;3.25;;;;;;;;;;5009285;28;20594;-60
2021/12/20 04:13:28;;;;;;;17.77;3.28;;;;;;;;;;5010510;28;20227;-60
2021/12/20 04:15:53;;;;;;;22.20;2.80;;;;;;;;;;5011551;28;20687;-60
2021/12/20 04:18:19;;;;;;;16.60;3.28;;;;;;;;;;5010233;28;20213;-60
2021/12/20 04:20:44;;;;;;;23.60;2.75;;;;;;;;;;5011715;28;20219;-60
2021/12/20 04:23:09;;;;;;;20.23;2.88;;;;;;;;;;5011409;28;20263;-60
2021/12/20 04:25:35;;;;;;;18.95;2.72;;;;;;;;;;5010947;28;20220;-60
2021/12/20 04:28:00;;;;;;;15.43;2.53;;;;;;;;;;5011076;28;20217;-62
2021/12/20 04:30:28;;;;;;;20.60;3.28;;;;;;;;;;5011261;28;20318;-60
2021/12/20 04:32:54;;;;;;;20.40;3.03;;;;;;;;;;5010543;28;20259;-60
2021/12/20 04:35:19;;;;;;;21.30;2.92;;;;;;;;;;5010907;28;20220;-60
2021/12/20 04:37:46;;;;;;;21.10;2.83;;;;;;;;;;5009566;28;20216;-60
2021/12/20 04:40:17;;;;;;;22.02;2.78;;;;;;;;;;5008907;28;20219;-60
2021/12/20 04:42:42;;;;;;;20.48;2.50;;;;;;;;;;5011358;28;20299;-60
2021/12/20 04:45:08;;;;;;;14.13;2.42;;;;;;;;;;5010686;28;20678;-60
2021/12/20 04:47:33;;;;;;;21.00;2.97;;;;;;;;;;5010230;28;20204;-60
2021/12/20 04:49:59;;;;;;;17.38;2.60;;;;;;;;;;5011010;28;20215;-60
2021/12/20 04:52:24;;;;;;;16.88;3.05;;;;;;;;;;5010559;28;20624;-60
2021/12/20 04:54:50;;;;;;;24.25;3.00;;;;;;;;;;5010519;28;20354;-60
2021/12/20 04:57:15;;;;;;;14.90;2.50;;;;;;;;;;5010417;28;20625;-60
2021/12/20 04:59:40;;;;;;;18.23;2.72;;;;;;;;;;5011056;28;20244;-60
2021/12/20 05:02:05;;;;;;;17.02;2.63;;;;;;;;;;5008163;28;20244;-61
2021/12/20 05:04:31;;;;;;;17.25;2.60;;;;;;;;;;5011049;28;20684;-60
2021/12/20 05:06:56;;;;;;;16.70;3.10;;;;;;;;;;5009553;28;20262;-60
2021/12/20 05:09:25;;;;;;;25.65;2.88;;;;;;;;;;5009819;28;20660;-60
2021/12/20 05:11:58;;;;;;;16.77;2.55;;;;;;;;;;5010803;28;20216;-60
2021/12/20 05:14:23;;;;;;;15.35;2.58;;;;;;;;;;5009514;28;20342;-60
2021/12/20 05:16:48;;;;;;;19.15;2.60;;;;;;;;;;5010388;28;20314;-60
2021/12/20 05:19:14;;;;;;;16.42;3.05;;;;;;;;;;5010137;28;20224;-61
2021/12/20 05:21:39;;;;;;;28.92;2.90;;;;;;;;;;5009972;28;20216;-60
2021/12/20 05:24:04;;;;;;;18.05;2.67;;;;;;;;;;5010236;28;20350;-61
2021/12/20 05:26:29;;;;;;;16.45;2.65;;;;;;;;;;5010772;28;20218;-60
2021/12/20 05:28:55;;;;;;;14.73;2.47;;;;;;;;;;5009741;28;20673;-60
2021/12/20 05:31:20;;;;;;;18.10;3.10;;;;;;;;;;5010151;28;20274;-60
2021/12/20 05:33:46;;;;;;;18.02;3.05;;;;;;;;;;5010516;28;20224;-60
2021/12/20 05:36:11;;;;;;;16.80;2.40;;;;;;;;;;5008086;28;20207;-60
2021/12/20 05:38:36;;;;;;;15.38;2.53;;;;;;;;;;5010505;28;20248;-60
2021/12/20 05:41:02;;;;;;;15.75;2.22;;;;;;;;;;5010008;28;20279;-60
2021/12/20 05:43:27;;;;;;;17.15;2.63;;;;;;;;;;5009545;28;20239;-60
2021/12/20 05:45:52;;;;;;;21.33;2.40;;;;;;;;;;5010355;28;20300;-60
2021/12/20 05:48:17;;;;;;;16.10;2.60;;;;;;;;;;5009592;28;20212;-60
2021/12/20 05:50:43;;;;;;;17.25;2.50;;;;;;;;;;5012250;28;20258;-60
2021/12/20 05:53:08;;;;;;;21.50;2.85;;;;;;;;;;5013764;28;20225;-60
2021/12/20 05:55:33;;;;;;;15.93;2.65;;;;;;;;;;5013275;28;20291;-60
2021/12/20 05:57:58;;;;;;;17.30;2.70;;;;;;;;;;5012278;28;20629;-60
2021/12/20 06:00:24;;;;;;;17.05;2.42;;;;;;;;;;5013721;28;20208;-60
2021/12/20 06:02:50;;;;;;;13.95;2.20;;;;;;;;;;5014109;28;20757;-60
2021/12/20 06:05:15;;;;;;;17.25;2.70;;;;;;;;;;5012911;28;20442;-60
2021/12/20 06:07:42;;;;;;;18.20;2.28;;;;;;;;;;5014174;28;20208;-60
2021/12/20 06:10:08;;;;;;;16.10;2.38;;;;;;;;;;5013780;28;20213;-60
2021/12/20 06:12:35;;;;;;;14.70;2.22;;;;;;;;;;5013273;28;20716;-60
2021/12/20 06:15:00;;;;;;;15.25;2.30;;;;;;;;;;5012250;28;20212;-62
2021/12/20 06:17:26;;;;;;;12.43;2.47;;;;;;;;;;5013222;28;20213;-60
2021/12/20 06:19:51;;;;;;;20.20;2.50;;;;;;;;;;5013625;28;20208;-60
2021/12/20 06:22:16;;;;;;;12.02;2.00;;;;;;;;;;5013257;28;20287;-61
2021/12/20 06:24:42;;;;;;;16.85;2.55;;;;;;;;;;5012976;28;20350;-69
2021/12/20 06:27:07;;;;;;;15.95;2.15;;;;;;;;;;5013331;28;20594;-60
2021/12/20 06:29:32;;;;;;;13.13;2.60;;;;;;;;;;5012514;28;20422;-60
2021/12/20 06:31:58;;;;;;;15.77;2.22;;;;;;;;;;5012788;28;20412;-60
2021/12/20 06:34:23;;;;;;;18.50;2.65;;;;;;;;;;5006440;28;20243;-60
2021/12/20 06:36:48;;;;;;;14.27;2.88;;;;;;;;;;5008234;28;20724;-60
2021/12/20 06:39:14;;;;;;;12.27;1.70;;;;;;;;;;4993283;28;20235;-60
2021/12/20 06:41:40;;;;;;;17.35;2.50;;;;;;;;;;5008881;28;20878;-60
2021/12/20 06:44:05;;;;;;;12.63;2.08;;;;;;;;;;4993429;28;20382;-60
2021/12/20 06:46:31;;;;;;;17.53;2.13;;;;;;;;;;4991873;28;20792;-59
2021/12/20 06:48:57;;;;;;;15.75;2.15;;;;;;;;;;4992378;28;20263;-60
2021/12/20 06:51:22;;;;;;;16.83;2.25;;;;;;;;;;4994551;28;20212;-59
2021/12/20 06:53:47;;;;;;;15.13;2.25;;;;;;;;;;5011448;28;20248;-59
2021/12/20 06:56:13;;;;;;;15.52;2.10;;;;;;;;;;5011555;28;20223;-60
2021/12/20 06:58:38;;;;;;;16.50;2.47;;;;;;;;;;5012055;28;20219;-60
2021/12/20 07:01:03;;;;;;;13.90;2.03;;;;;;;;;;5009980;28;20239;-60
2021/12/20 07:03:29;;;;;;;17.10;2.28;;;;;;;;;;5012129;28;20215;-60
2021/12/20 07:05:55;;;;;;;12.10;1.98;;;;;;;;;;5010396;28;20604;-60
2021/12/20 07:08:20;;;;;;;13.52;2.10;;;;;;;;;;5010633;28;20213;-60
2021/12/20 07:10:45;;;;;;;14.60;2.35;;;;;;;;;;5011604;28;20920;-60
2021/12/20 07:13:11;;;;;;;16.50;2.30;;;;;;;;;;5011313;28;20220;-60
2021/12/20 07:15:36;;;;;;;15.95;2.45;;;;;;;;;;5009508;28;20574;-60
2021/12/20 07:18:02;;;;;;;16.98;2.13;;;;;;;;;;5010035;28;20235;-60
2021/12/20 07:20:27;;;;;;;15.98;2.63;;;;;;;;;;5011475;28;20565;-60
2021/12/20 07:22:52;;;;;;;15.27;2.78;;;;;;;;;;5010807;28;20243;-60
2021/12/20 07:25:18;;;;;;;10.43;1.80;;;;;;;;;;5011084;28;20329;-60
2021/12/20 07:27:43;;;;;;;17.20;3.28;;;;;;;;;;5010740;28;20231;-59
2021/12/20 07:30:09;;;;;;;14.90;2.33;;;;;;;;;;5008949;28;20583;-60
2021/12/20 07:32:34;;;;;;;14.48;1.85;;;;;;;;;;5002667;28;20220;-60
2021/12/20 07:34:59;;;;;;;17.05;2.50;;;;;;;;;;5014680;28;20338;-60
2021/12/20 07:37:27;;;;;;;15.02;2.10;;;;;;;;;;4991161;28;20216;-60
2021/12/20 07:39:52;;;;;;;18.65;2.30;;;;;;;;;;4991796;28;20213;-60
2021/12/20 07:42:17;;;;;;;14.13;2.40;;;;;;;;;;4990340;28;20226;-60
2021/12/20 07:44:43;;;;;;;11.93;2.20;;;;;;;;;;4970195;28;1125928;-60
2021/12/20 07:47:08;;;;;;;12.02;2.05;;;;;;;;;;5010394;28;20233;-61
2021/12/20 07:49:34;;;;;;;15.90;2.55;;;;;;;;;;5009135;28;20224;-61
2021/12/20 07:52:00;;;;;;;16.85;2.10;;;;;;;;;;5011804;28;20235;-61
2021/12/20 07:54:25;;;;;;;16.03;2.10;;;;;;;;;;5011414;28;20707;-61
2021/12/20 07:56:50;;;;;;;8.35;2.03;;;;;;;;;;5009900;28;20757;-61
2021/12/20 07:59:16;;;;;;;12.32;2.17;;;;;;;;;;5011404;28;20216;-61
2021/12/20 08:01:41;;;;;;;17.00;2.20;;;;;;;;;;5006650;28;20223;-60
2021/12/20 08:04:07;;;;;;;13.30;2.13;;;;;;;;;;5000697;28;20883;-61
2021/12/20 08:06:33;;;;;;;14.18;3.40;;;;;;;;;;4999527;28;20213;-61
2021/12/20 08:08:58;;;;;;;11.15;2.10;;;;;;;;;;5009002;28;20213;-61
2021/12/20 08:11:23;;;;;;;13.05;2.42;;;;;;;;;;5004889;28;20595;-60
2021/12/20 08:13:49;;;;;;;18.05;2.60;;;;;;;;;;5002115;28;20282;-61
2021/12/20 08:16:15;;;;;;;12.88;2.15;;;;;;;;;;5010552;28;20513;-60
2021/12/20 08:18:40;;;;;;;11.20;1.98;;;;;;;;;;5010689;28;20641;-61
2021/12/20 08:21:06;;;;;;;11.43;2.17;;;;;;;;;;5009385;28;20213;-61
2021/12/20 08:23:31;;;;;;;13.43;2.35;;;;;;;;;;5008720;28;20266;-60
2021/12/20 08:25:57;;;;;;;13.80;2.05;;;;;;;;;;5001743;28;20254;-61
2021/12/20 08:28:22;;;;;;;12.82;2.30;;;;;;;;;;4996285;28;20212;-61
2021/12/20 08:30:48;;;;;;;11.15;2.30;;;;;;;;;;5015373;28;20656;-60
2021/12/20 08:33:13;;;;;;;15.95;2.45;;;;;;;;;;5029651;28;20645;-61
2021/12/20 08:35:39;;;;;;;12.05;2.25;;;;;;;;;;5030961;28;20212;-61
2021/12/20 08:38:04;;;;;;;14.27;1.75;;;;;;;;;;5029476;28;20222;-61
2021/12/20 08:40:29;;;;;;;12.73;2.08;;;;;;;;;;5022207;28;20303;-61
2021/12/20 08:42:55;;;;;;;11.70;1.65;;;;;;;;;;5019116;28;20221;-60
2021/12/20 08:45:20;;;;;;;13.40;2.35;;;;;;;;;;5015166;28;20239;-61
2021/12/20 08:47:46;;;;;;;12.13;1.77;;;;;;;;;;5030712;28;20215;-60
2021/12/20 08:50:12;;;;;;;13.88;2.15;;;;;;;;;;5024560;28;20212;-61
2021/12/20 08:52:37;;;;;;;15.98;2.17;;;;;;;;;;5006854;28;20316;-60
2021/12/20 08:55:03;;;;;;;13.85;2.00;;;;;;;;;;5017889;28;20223;-61
2021/12/20 08:57:28;;;;;;;13.20;2.17;;;;;;;;;;5004959;28;20219;-60
2021/12/20 08:59:54;;;;;;;14.82;2.45;;;;;;;;;;5016586;28;20212;-60
2021/12/20 09:02:19;;;;;;;13.82;2.13;;;;;;;;;;5027218;28;20220;-60
2021/12/20 09:04:44;;;;;;;15.32;2.58;;;;;;;;;;5016278;28;20302;-60
2021/12/20 09:07:16;;;;;;;15.57;2.40;;;;;;;;;;5019330;28;20340;-61
2021/12/20 09:09:44;;;;;;;20.08;2.58;;;;;;;;;;5010562;28;20287;-60
2021/12/20 09:12:10;;;;;;;16.65;2.25;;;;;;;;;;5001179;28;20766;-60
2021/12/20 09:14:35;;;;;;;16.20;2.47;;;;;;;;;;5005110;28;20240;-60
2021/12/20 09:17:01;;;;;;;15.30;2.45;;;;;;;;;;5003257;28;20295;-62
2021/12/20 09:19:26;;;;;;;15.50;2.30;;;;;;;;;;5010534;28;20205;-60
2021/12/20 09:21:51;;;;;;;16.40;2.85;;;;;;;;;;5007547;28;20212;-60
2021/12/20 09:24:17;;;;;;;16.95;2.35;;;;;;;;;;5009380;28;20731;-60
2021/12/20 09:26:42;;;;;;;18.90;3.60;;;;;;;;;;5008306;28;20443;-60
2021/12/20 09:29:07;;;;;;;18.05;2.83;;;;;;;;;;5009089;28;20208;-60
2021/12/20 09:31:33;;;;;;;15.75;3.38;;;;;;;;;;5010555;28;20809;-60
2021/12/20 09:33:58;;;;;;;17.30;2.87;;;;;;;;;;5010207;28;20232;-60
2021/12/20 09:36:28;;;;;;;19.50;3.22;;;;;;;;;;5007758;28;20263;-60
2021/12/20 09:38:54;;;;;;;20.77;3.20;;;;;;;;;;5018041;28;20221;-60
2021/12/20 09:42:00;;;;;;;18.80;3.28;;;;;;;;;;4992283;28;20630;-60
2021/12/20 09:44:05;;;;;;;14.40;2.80;;;;;;;;;;4989811;28;20227;-60
2021/12/20 09:46:30;;;;;;;19.48;3.25;;;;;;;;;;4990626;28;20229;-60
2021/12/20 09:48:57;;;;;;;21.80;3.60;;;;;;;;;;5007175;28;20289;-59
2021/12/20 09:51:23;;;;;;;19.33;3.65;;;;;;;;;;5009827;28;20667;-60
2021/12/20 09:53:48;;;;;;;20.98;3.83;;;;;;;;;;5010096;28;20294;-59
2021/12/20 09:56:14;;;;;;;16.98;3.15;;;;;;;;;;5009040;28;20213;-60
2021/12/20 09:58:40;;;;;;;21.25;3.92;;;;;;;;;;5008927;28;20689;-60
2021/12/20 10:01:06;;;;;;;20.10;3.05;;;;;;;;;;5008398;28;20295;-60
2021/12/20 10:03:31;;;;;;;22.23;3.67;;;;;;;;;;5006192;28;20206;-59
2021/12/20 10:05:57;;;;;;;23.00;4.13;;;;;;;;;;4990631;28;20960;-59
2021/12/20 10:08:31;;;;;;;21.05;3.42;;;;;;;;;;4988696;28;20633;-59
2021/12/20 10:10:57;;;;;;;24.92;3.85;;;;;;;;;;4996177;28;20270;-59
2021/12/20 10:13:23;;;;;;;19.73;3.58;;;;;;;;;;4999234;28;20760;-60
2021/12/20 10:15:49;;;;;;;21.17;4.13;;;;;;;;;;5001125;28;20239;-59
2021/12/20 10:18:14;;;;;;;26.67;3.75;;;;;;;;;;5008948;28;20220;-60
2021/12/20 10:20:40;;;;;;;22.65;3.42;;;;;;;;;;5009940;28;20609;-60
2021/12/20 10:23:07;;;;;;;32.53;3.72;;;;;;;;;;5009466;28;20223;-60
2021/12/20 10:25:32;;;;;;;22.42;3.90;;;;;;;;;;5004296;28;20216;-59
2021/12/20 10:28:03;;;;;;;21.80;3.97;;;;;;;;;;4993884;28;20213;-59
2021/12/20 10:30:30;;;;;;;15.07;3.45;;;;;;;;;;5009266;28;20208;-60
2021/12/20 10:32:55;;;;;;;19.02;3.70;;;;;;;;;;5007967;28;20591;-60
2021/12/20 10:35:27;;;;;;;20.63;3.72;;;;;;;;;;5009632;28;20205;-60
2021/12/20 10:37:53;;;;;;;22.48;4.68;;;;;;;;;;5012678;28;20220;-60
2021/12/20 10:40:19;;;;;;;26.17;3.78;;;;;;;;;;5011496;28;20300;-59
2021/12/20 10:42:44;;;;;;;23.42;4.20;;;;;;;;;;5013379;28;20299;-59
2021/12/20 10:45:11;;;;;;;26.42;4.13;;;;;;;;;;5011249;28;20238;-60
2021/12/20 10:47:37;;;;;;;25.33;4.47;;;;;;;;;;5012855;28;20216;-60
2021/12/20 10:50:20;;;;;;;22.48;4.63;;;;;;;;;;5011935;28;20342;-60
2021/12/20 10:52:45;;;;;;;27.40;4.00;;;;;;;;;;5010358;28;20231;-60
2021/12/20 10:55:11;;;;;;;22.52;3.53;;;;;;;;;;5007498;28;20220;-59
2021/12/20 10:57:36;;;;;;;25.00;3.97;;;;;;;;;;5013002;28;20224;-59
2021/12/20 11:00:13;;;;;;;27.27;4.10;;;;;;;;;;5009281;28;20212;-60
2021/12/20 11:03:20;;;;;;;21.25;5.05;;;;;;;;;;5013157;28;20216;-60
2021/12/20 11:05:57;;;;;;;26.80;4.95;;;;;;;;;;5003757;28;20223;-60
2021/12/20 11:11:10;;;;;;;25.65;4.82;;;;;;;;;;4992677;28;20553;-60
2021/12/20 11:13:37;;;;;;;26.75;4.15;;;;;;;;;;4992140;28;20213;-60
2021/12/20 11:16:21;;;;;;;27.48;5.10;;;;;;;;;;4998396;28;20335;-60
2021/12/20 11:18:46;;;;;;;28.27;4.93;;;;;;;;;;4993158;28;20205;-60
2021/12/20 11:21:12;;;;;;;28.35;4.25;;;;;;;;;;5000965;28;20235;-60
2021/12/20 11:23:37;;;;;;;23.10;4.00;;;;;;;;;;5011993;28;20623;-60
2021/12/20 11:26:02;;;;;;;27.98;4.53;;;;;;;;;;5012124;28;20738;-61
2021/12/20 11:28:28;;;;;;;24.10;3.80;;;;;;;;;;5011742;28;20304;-60
2021/12/20 11:30:53;;;;;;;24.50;4.60;;;;;;;;;;5012704;28;20217;-59
2021/12/20 11:33:18;;;;;;;21.23;4.18;;;;;;;;;;5010731;28;20232;-60
2021/12/20 11:35:43;;;;;;;23.70;4.22;;;;;;;;;;4994268;28;20217;-60
2021/12/20 11:38:09;;;;;;;24.92;4.32;;;;;;;;;;5012035;28;20769;-60
2021/12/20 11:40:34;;;;;;;30.67;4.95;;;;;;;;;;5012456;28;20215;-60
2021/12/20 11:43:00;;;;;;;25.23;3.90;;;;;;;;;;5007640;28;20310;-59
2021/12/20 11:45:25;;;;;;;21.42;4.00;;;;;;;;;;5009418;28;20274;-60
2021/12/20 11:47:57;;;;;;;21.58;4.38;;;;;;;;;;5009972;28;20216;-59
2021/12/20 11:50:23;;;;;;;25.05;3.97;;;;;;;;;;5002752;28;20220;-59
2021/12/20 11:52:49;;;;;;;24.92;4.20;;;;;;;;;;5006985;28;20232;-59
2021/12/20 11:55:14;;;;;;;18.88;4.55;;;;;;;;;;5009757;28;20228;-60
2021/12/20 11:57:40;;;;;;;25.92;4.63;;;;;;;;;;5011882;28;20216;-59
2021/12/20 12:00:07;;;;;;;23.45;4.05;;;;;;;;;;5010930;28;20707;-60
2021/12/20 12:02:33;;;;;;;22.92;3.97;;;;;;;;;;5001131;28;20216;-59
2021/12/20 12:05:00;;;;;;;20.83;3.97;;;;;;;;;;5013830;28;20368;-59
2021/12/20 12:07:26;;;;;;;25.33;4.63;;;;;;;;;;4991935;28;20452;-59
2021/12/20 12:09:56;;;;;;;28.60;4.85;;;;;;;;;;5019495;28;20207;-59
2021/12/20 12:12:22;;;;;;;25.02;4.20;;;;;;;;;;5017391;28;20235;-59
2021/12/20 12:15:02;;;;;;;25.20;4.15;;;;;;;;;;5010226;28;20312;-59
2021/12/20 12:17:47;;;;;;;26.48;4.85;;;;;;;;;;5010983;28;20739;-59
2021/12/20 12:20:13;;;;;;;24.20;4.80;;;;;;;;;;5011326;28;20220;-59
2021/12/20 12:22:42;;;;;;;21.85;4.70;;;;;;;;;;5011832;28;20209;-59
2021/12/20 12:25:08;;;;;;;19.50;4.25;;;;;;;;;;5009306;28;20221;-60
2021/12/20 12:27:34;;;;;;;29.80;4.63;;;;;;;;;;5011514;28;20215;-59
2021/12/20 12:30:28;;;;;;;21.50;4.03;;;;;;;;;;5011231;28;20212;-59
2021/12/20 12:32:54;;;;;;;26.40;4.15;;;;;;;;;;5011124;28;20220;-59
2021/12/20 12:35:39;;;;;;;28.58;8.57;;;;;;;;;;5010461;28;20223;-59
2021/12/20 12:38:16;;;;;;;20.88;3.60;;;;;;;;;;5010250;28;20672;-60
2021/12/20 12:40:42;;;;;;;21.67;4.00;;;;;;;;;;5011427;28;20246;-59
2021/12/20 12:43:08;;;;;;;23.77;3.83;;;;;;;;;;4997201;28;20304;-59
2021/12/20 12:45:53;;;;;;;25.52;4.35;;;;;;;;;;4989250;28;20229;-59
2021/12/20 12:48:32;;;;;;;24.88;4.30;;;;;;;;;;4991096;28;20225;-59
2021/12/20 12:50:57;;;;;;;23.38;3.95;;;;;;;;;;4991465;28;20296;-59
2021/12/20 12:53:36;;;;;;;22.30;3.88;;;;;;;;;;5009261;28;20295;-59
2021/12/20 12:56:20;;;;;;;26.35;4.70;;;;;;;;;;5009335;28;20222;-59
2021/12/20 12:58:45;;;;;;;24.05;4.43;;;;;;;;;;5009510;28;20208;-59
2021/12/20 13:01:10;;;;;;;22.50;4.25;;;;;;;;;;5012605;28;20307;-59
2021/12/20 13:03:35;;;;;;;23.98;3.40;;;;;;;;;;5029378;28;20687;-59
2021/12/20 13:06:01;;;;;;;20.35;3.85;;;;;;;;;;5029489;28;20207;-59
2021/12/20 13:08:26;;;;;;;29.75;4.20;;;;;;;;;;5030724;28;20215;-59
2021/12/20 13:10:52;;;;;;;20.02;3.97;;;;;;;;;;5030630;28;20216;-59
2021/12/20 13:13:26;;;;;;;24.90;4.85;;;;;;;;;;5028761;28;20286;-59
2021/12/20 13:15:55;;;;;;;25.70;4.45;;;;;;;;;;5019461;28;20211;-59
2021/12/20 13:18:30;;;;;;;21.50;3.67;;;;;;;;;;5010240;28;20610;-59
2021/12/20 13:23:29;;;;;;;29.52;11.52;;;;;;;;;;5010348;28;20220;-59
2021/12/20 13:25:56;;;;;;;21.38;3.80;;;;;;;;;;5006667;28;20271;-59
2021/12/20 13:28:22;;;;;;;26.70;4.60;;;;;;;;;;5009015;28;20208;-59
2021/12/20 13:30:49;;;;;;;26.02;4.15;;;;;;;;;;5009618;28;20245;-59
2021/12/20 13:33:15;;;;;;;19.53;3.53;;;;;;;;;;5019980;28;20594;-59
2021/12/20 13:35:41;;;;;;;21.02;3.70;;;;;;;;;;4997161;28;20216;-59
2021/12/20 13:38:15;;;;;;;26.50;4.63;;;;;;;;;;5010199;28;20216;-60
2021/12/20 13:40:41;;;;;;;15.40;2.95;;;;;;;;;;5009748;28;20298;-59
2021/12/20 13:43:09;;;;;;;24.85;5.25;;;;;;;;;;5009701;28;20303;-60
2021/12/20 13:45:34;;;;;;;19.10;4.18;;;;;;;;;;5008966;28;20276;-59
2021/12/20 13:48:00;;;;;;;20.02;3.58;;;;;;;;;;5009810;28;20670;-59
2021/12/20 13:50:25;;;;;;;23.58;3.78;;;;;;;;;;5009931;28;20766;-59
2021/12/20 13:52:50;;;;;;;21.80;3.85;;;;;;;;;;5008876;28;20224;-59
2021/12/20 13:55:16;;;;;;;18.05;4.18;;;;;;;;;;5009441;28;20351;-59
2021/12/20 13:57:41;;;;;;;18.50;3.85;;;;;;;;;;5009978;28;20692;-59
2021/12/20 14:00:07;;;;;;;18.38;4.18;;;;;;;;;;5006998;28;20231;-59
2021/12/20 14:02:34;;;;;;;14.77;3.70;;;;;;;;;;4999303;28;20231;-59
2021/12/20 14:05:13;;;;;;;19.50;6.47;;;;;;;;;;4996803;28;20261;-59
2021/12/20 14:07:41;;;;;;;20.05;4.22;;;;;;;;;;4996343;28;20299;-59
2021/12/20 14:10:12;;;;;;;22.23;4.05;;;;;;;;;;4997478;28;20220;-60
2021/12/20 14:12:40;;;;;;;17.65;4.70;;;;;;;;;;5008118;28;20327;-59
2021/12/20 14:15:06;;;;;;;19.90;4.60;;;;;;;;;;5007871;28;20216;-59
2021/12/20 14:17:51;;;;;;;19.02;4.20;;;;;;;;;;5007525;28;20884;-59
2021/12/20 14:20:16;;;;;;;22.92;4.85;;;;;;;;;;5006444;28;20217;-59
2021/12/20 14:22:49;;;;;;;19.95;5.80;;;;;;;;;;5006311;28;20220;-59
2021/12/20 14:25:15;;;;;;;24.85;8.25;;;;;;;;;;5004533;28;20250;-59
2021/12/20 14:27:40;;;;;;;20.25;4.47;;;;;;;;;;5000167;28;21297;-59
2021/12/20 14:30:19;;;;;;;22.52;5.40;;;;;;;;;;4997652;28;20574;-59
2021/12/20 14:32:45;;;;;;;22.58;5.97;;;;;;;;;;5001964;28;20259;-59
2021/12/20 14:35:29;;;;;;;20.65;7.10;;;;;;;;;;5007983;28;20258;-60
2021/12/20 14:37:55;;;;;;;24.90;9.90;;;;;;;;;;5005766;28;20220;-59
2021/12/20 14:40:39;;;;;;;19.65;5.10;;;;;;;;;;5007692;28;21541;-59
2021/12/20 14:43:08;;;;;;;23.23;5.00;;;;;;;;;;5007011;28;20220;-59
2021/12/20 14:45:33;;;;;;;21.98;3.88;;;;;;;;;;5006977;28;20228;-59